Afton, Minnesota
Current Conditions -  °F | °C
As of 5:31 PM on Wednesday 22 Oct 2014 (Local Time) from K21D Reporting Station
Scattered Clouds Scattered Clouds  
Wind Chill: 57°   Ceiling: Unl
Heat Index: 57°   Visibility: 10mi
Dew Point: 41°   Wind: 13mph
Humidity: 55%   Direction: 140°SE
Pressure: 30.07"   Gusts: NA
Location:  44.9°N, 92.78°W
Report Text: K21D 222231Z AUTO 14011KT 060V150 10SM SCT085 14/05 A3007 RMK AO2
Loading
Personal Weather Stations






























Interactive Weather Map New forecast layout! Learn more

10-Day Weather Forecast

Advertisements
Track Severe Weather on mobile